createdAt,value
2019-04-21T00:02:01.379Z,4.20
2019-04-21T00:06:22.402Z,4.20
2019-04-21T00:10:34.080Z,6.35
2019-04-21T00:14:31.584Z,6.28
2019-04-21T00:18:53.777Z,7.40
2019-04-21T00:23:05.932Z,5.92
2019-04-21T00:27:12.752Z,7.58
2019-04-21T00:31:16.967Z,5.75
2019-04-21T00:35:13.171Z,6.75
2019-04-21T00:39:43.956Z,9.85
2019-04-21T00:43:35.098Z,6.47
2019-04-21T00:47:38.829Z,7.25
2019-04-21T00:52:23.282Z,5.28
2019-04-21T00:56:36.639Z,5.90
2019-04-21T01:00:22.222Z,5.20
2019-04-21T01:04:33.890Z,6.30
2019-04-21T01:08:40.001Z,6.92
2019-04-21T01:12:43.022Z,6.20
2019-04-21T01:16:51.685Z,6.42
2019-04-21T01:20:32.017Z,6.15
2019-04-21T01:24:41.776Z,7.55
2019-04-21T01:29:02.350Z,8.05
2019-04-21T01:33:08.196Z,5.75
2019-04-21T01:37:10.743Z,6.83
2019-04-21T01:41:25.441Z,6.10
2019-04-21T01:45:26.569Z,7.00
2019-04-21T01:49:26.434Z,9.75
2019-04-21T01:53:51.278Z,11.20
2019-04-21T01:58:09.770Z,7.58
2019-04-21T02:02:17.164Z,8.73
2019-04-21T02:06:27.589Z,11.80
2019-04-21T02:10:35.263Z,7.28
2019-04-21T02:14:41.459Z,8.03
2019-04-21T02:18:39.102Z,7.42
2019-04-21T02:23:06.033Z,11.40
2019-04-21T02:26:55.675Z,7.55
2019-04-21T02:35:25.783Z,8.80
2019-04-21T02:39:21.011Z,6.33
2019-04-21T02:43:25.097Z,8.05
2019-04-21T02:47:48.366Z,8.20
2019-04-21T02:55:48.103Z,6.90
2019-04-21T03:00:00.076Z,8.43
2019-04-21T03:04:10.496Z,8.70
2019-04-21T03:08:15.007Z,9.43
2019-04-21T03:12:19.016Z,8.35
2019-04-21T03:16:26.355Z,7.83
2019-04-21T03:20:39.882Z,7.62
2019-04-21T03:28:49.510Z,8.58
2019-04-21T03:33:32.508Z,8.73
2019-04-21T03:41:02.302Z,9.75
2019-04-21T03:49:20.624Z,9.60
2019-04-21T03:53:20.806Z,9.85
2019-04-21T03:57:44.203Z,7.47
2019-04-21T04:02:01.878Z,8.23
2019-04-21T04:18:41.152Z,9.03
2019-04-21T04:22:44.798Z,9.15
2019-04-21T04:30:45.347Z,8.20
2019-04-21T04:35:01.554Z,8.43
2019-04-21T04:39:26.105Z,8.33
2019-04-21T04:51:43.889Z,6.47
2019-04-21T04:55:43.412Z,6.92
2019-04-21T04:59:47.599Z,6.55
2019-04-21T05:03:49.293Z,8.00
2019-04-21T05:07:57.271Z,8.18
2019-04-21T05:11:55.718Z,10.28
2019-04-21T05:16:13.751Z,8.58
2019-04-21T05:20:11.494Z,8.63
2019-04-21T05:24:08.121Z,6.08
2019-04-21T05:28:09.043Z,8.18
2019-04-21T05:32:38.242Z,9.30
2019-04-21T05:36:38.154Z,6.97
2019-04-21T05:40:38.921Z,7.20
2019-04-21T05:44:58.307Z,7.25
2019-04-21T05:49:05.832Z,7.58
2019-04-21T05:53:08.749Z,7.53
2019-04-21T05:57:11.510Z,7.67
2019-04-21T06:01:31.485Z,10.60
2019-04-21T06:05:39.187Z,10.82
2019-04-21T06:09:35.618Z,7.70
2019-04-21T06:17:49.173Z,7.17
2019-04-21T06:21:51.074Z,8.20
2019-04-21T06:26:06.258Z,5.90
2019-04-21T06:30:13.510Z,6.33
2019-04-21T06:34:09.666Z,7.80
2019-04-21T06:38:22.250Z,6.87
2019-04-21T06:42:19.533Z,9.35
2019-04-21T06:46:31.593Z,8.18
2019-04-21T06:50:41.188Z,7.20
2019-04-21T06:54:45.789Z,6.25
2019-04-21T06:58:48.087Z,7.37
2019-04-21T07:02:54.876Z,6.50
2019-04-21T07:06:54.715Z,7.58
2019-04-21T07:11:02.348Z,6.30
2019-04-21T07:15:03.305Z,5.37
2019-04-21T07:19:27.830Z,7.75
2019-04-21T07:23:28.477Z,6.17
2019-04-21T07:27:31.981Z,6.70
2019-04-21T07:31:31.964Z,6.47
2019-04-21T07:35:38.230Z,7.55
2019-04-21T07:39:40.567Z,4.42
2019-04-21T07:43:44.365Z,5.80
2019-04-21T07:47:56.538Z,6.05
2019-04-21T07:52:22.193Z,5.42
2019-04-21T07:56:15.891Z,4.78
2019-04-21T08:00:47.779Z,6.03
2019-04-21T08:04:55.999Z,7.05
2019-04-21T08:08:46.712Z,8.83
2019-04-21T08:12:48.219Z,7.10
2019-04-21T08:21:07.237Z,7.85
2019-04-21T08:25:09.175Z,8.93
2019-04-21T08:29:25.740Z,9.58
2019-04-21T08:33:31.995Z,6.67
2019-04-21T08:37:31.447Z,4.95
2019-04-21T08:41:30.311Z,5.70
2019-04-21T08:45:42.793Z,4.20
2019-04-21T08:49:49.167Z,6.37
2019-04-21T08:53:55.079Z,4.95
2019-04-21T08:58:16.015Z,4.95
2019-04-21T09:02:19.820Z,6.35
2019-04-21T09:10:28.373Z,6.40
2019-04-21T09:14:36.636Z,4.67
2019-04-21T09:18:37.453Z,4.72
2019-04-21T09:22:49.338Z,5.92
2019-04-21T09:26:51.474Z,5.15
2019-04-21T09:30:45.064Z,5.33
2019-04-21T09:34:47.121Z,6.42
2019-04-21T09:38:59.190Z,4.67
2019-04-21T09:43:02.381Z,5.28
2019-04-21T09:47:05.162Z,5.35
2019-04-21T09:51:08.681Z,6.95
2019-04-21T09:55:18.837Z,8.18
2019-04-21T09:59:26.230Z,5.40
2019-04-21T10:03:26.206Z,6.72
2019-04-21T10:07:35.616Z,6.42
2019-04-21T10:11:37.619Z,7.15
2019-04-21T10:15:44.106Z,6.83
2019-04-21T10:19:48.535Z,5.20
2019-04-21T10:23:52.616Z,8.88
2019-04-21T10:27:57.083Z,4.35
2019-04-21T10:32:01.592Z,4.47
2019-04-21T10:36:06.855Z,3.92
2019-04-21T10:40:11.762Z,4.78
2019-04-21T10:44:17.026Z,5.40
2019-04-21T10:48:23.099Z,4.08
2019-04-21T10:52:46.965Z,4.75
2019-04-21T10:56:52.476Z,4.85
2019-04-21T11:01:04.176Z,4.67
2019-04-21T11:05:09.066Z,4.15
2019-04-21T11:09:13.931Z,5.10
2019-04-21T11:13:18.828Z,4.20
2019-04-21T11:17:23.987Z,4.75
2019-04-21T11:21:29.167Z,4.97
2019-04-21T11:25:33.786Z,4.87
2019-04-21T11:29:39.158Z,5.78
2019-04-21T11:33:45.415Z,7.55
2019-04-21T11:37:50.306Z,5.72
2019-04-21T11:41:54.705Z,13.05
2019-04-21T11:46:00.207Z,5.97
2019-04-21T11:50:05.333Z,8.00
2019-04-21T11:54:10.741Z,5.08
2019-04-21T11:58:16.328Z,4.78
2019-04-21T12:02:21.554Z,4.87
2019-04-21T12:06:32.389Z,4.45
2019-04-21T12:10:31.710Z,5.33
2019-04-21T12:14:36.438Z,5.72
2019-04-21T12:18:40.835Z,3.58
2019-04-21T12:22:45.355Z,4.12
2019-04-21T12:26:49.795Z,3.50
2019-04-21T12:30:54.082Z,5.10
2019-04-21T12:34:59.709Z,4.05
2019-04-21T12:39:07.336Z,5.03
2019-04-21T12:43:12.527Z,3.35
2019-04-21T12:47:16.965Z,4.70
2019-04-21T12:51:21.899Z,6.00
2019-04-21T12:55:30.513Z,4.62
2019-04-21T12:59:32.872Z,3.98
2019-04-21T13:03:37.949Z,4.83
2019-04-21T13:07:42.063Z,3.67
2019-04-21T13:11:46.855Z,4.05
2019-04-21T13:15:51.694Z,4.15
2019-04-21T13:19:56.956Z,4.42
2019-04-21T13:24:01.146Z,4.00
2019-04-21T13:28:06.880Z,3.92
2019-04-21T13:32:12.442Z,4.97
2019-04-21T13:36:18.110Z,4.85
2019-04-21T13:40:48.639Z,3.02
2019-04-21T13:44:42.118Z,3.08
2019-04-21T13:48:46.605Z,3.90
2019-04-21T13:52:51.165Z,3.35
2019-04-21T13:56:56.531Z,2.92
2019-04-21T14:01:03.406Z,5.00
2019-04-21T14:05:10.115Z,3.85
2019-04-21T14:09:13.931Z,4.62
2019-04-21T14:13:18.532Z,3.50
2019-04-21T14:17:25.159Z,4.25
2019-04-21T14:21:31.403Z,4.28
2019-04-21T14:25:35.633Z,4.83
2019-04-21T14:29:39.614Z,3.55
2019-04-21T14:33:43.767Z,4.08
2019-04-21T14:37:48.797Z,3.05
2019-04-21T14:41:53.836Z,3.40
2019-04-21T14:46:02.896Z,2.72
2019-04-21T14:50:26.550Z,2.60
2019-04-21T14:54:50.906Z,4.08
2019-04-21T14:58:57.294Z,2.95
2019-04-21T15:03:01.441Z,2.75
2019-04-21T15:07:05.707Z,2.52
2019-04-21T15:11:11.702Z,3.33
2019-04-21T15:15:16.162Z,4.08
2019-04-21T15:19:20.492Z,3.47
2019-04-21T15:23:26.873Z,4.40
2019-04-21T15:27:30.831Z,3.42
2019-04-21T15:31:38.290Z,3.22
2019-04-21T15:35:40.716Z,3.80
2019-04-21T15:39:44.830Z,5.08
2019-04-21T15:43:49.195Z,5.10
2019-04-21T15:47:53.945Z,2.95
2019-04-21T15:51:58.183Z,4.03
2019-04-21T15:56:22.642Z,3.42
2019-04-21T16:00:34.206Z,2.52
2019-04-21T16:04:38.959Z,4.37
2019-04-21T16:08:49.176Z,3.02
2019-04-21T16:12:51.657Z,3.08
2019-04-21T16:16:57.141Z,3.40
2019-04-21T16:21:02.078Z,3.45
2019-04-21T16:25:08.629Z,4.45
2019-04-21T16:29:13.270Z,3.85
2019-04-21T16:33:18.771Z,4.58
2019-04-21T16:37:23.535Z,5.17
2019-04-21T16:41:28.663Z,2.87
2019-04-21T16:45:33.047Z,3.20
2019-04-21T16:49:38.025Z,4.33
2019-04-21T16:53:48.087Z,3.08
2019-04-21T16:58:04.442Z,3.98
2019-04-21T17:02:01.053Z,2.83
2019-04-21T17:06:06.892Z,2.90
2019-04-21T17:10:12.813Z,3.12
2019-04-21T17:14:39.974Z,3.87
2019-04-21T17:18:43.642Z,4.37
2019-04-21T17:22:33.586Z,3.98
2019-04-21T17:26:40.823Z,3.92
2019-04-21T17:30:44.361Z,5.65
2019-04-21T17:34:49.899Z,5.65
2019-04-21T17:38:55.672Z,7.42
2019-04-21T17:43:03.690Z,3.98
2019-04-21T17:47:17.844Z,3.22
2019-04-21T17:51:17.385Z,5.08
2019-04-21T17:55:29.405Z,4.15
2019-04-21T17:59:56.261Z,3.12
2019-04-21T18:04:01.614Z,5.50
2019-04-21T18:07:54.353Z,5.05
2019-04-21T18:12:09.419Z,3.15
2019-04-21T18:16:06.344Z,4.70
2019-04-21T18:19:59.722Z,3.35
2019-04-21T18:24:11.685Z,4.40
2019-04-21T18:28:12.459Z,3.45
2019-04-21T18:32:24.886Z,2.77
2019-04-21T18:36:45.505Z,6.78
2019-04-21T18:40:51.306Z,2.40
2019-04-21T18:49:09.130Z,3.02
2019-04-21T18:53:32.542Z,3.33
2019-04-21T18:57:34.526Z,3.00
2019-04-21T19:01:31.793Z,2.65
2019-04-21T19:05:34.503Z,3.27
2019-04-21T19:10:14.390Z,3.80
2019-04-21T19:18:38.775Z,3.12
2019-04-21T19:22:32.891Z,5.50
2019-04-21T19:26:50.852Z,3.00
2019-04-21T19:30:49.947Z,3.47
2019-04-21T19:34:40.389Z,5.53
2019-04-21T19:38:49.251Z,2.70
2019-04-21T19:42:55.669Z,3.60
2019-04-21T19:47:10.835Z,4.40
2019-04-21T19:51:15.039Z,4.22
2019-04-21T19:55:04.494Z,3.58
2019-04-21T19:59:11.828Z,2.50
2019-04-21T20:03:14.921Z,3.87
2019-04-21T20:07:31.636Z,3.47
2019-04-21T20:11:41.714Z,5.00
2019-04-21T20:15:52.055Z,4.20
2019-04-21T20:19:38.279Z,4.00
2019-04-21T20:23:43.247Z,3.50
2019-04-21T20:27:58.197Z,3.35
2019-04-21T20:32:20.198Z,3.10
2019-04-21T20:36:23.782Z,4.45
2019-04-21T20:40:19.602Z,3.27
2019-04-21T20:44:29.639Z,2.40
2019-04-21T20:48:29.706Z,3.30
2019-04-21T20:52:41.797Z,5.33
2019-04-21T20:56:49.710Z,3.50
2019-04-21T21:01:17.397Z,3.70
2019-04-21T21:04:51.367Z,4.42
2019-04-21T21:09:04.841Z,4.37
2019-04-21T21:13:22.215Z,3.77
2019-04-21T21:17:34.502Z,2.67
2019-04-21T21:21:20.977Z,3.37
2019-04-21T21:25:33.749Z,3.50
2019-04-21T21:29:33.288Z,3.37
2019-04-21T21:33:52.504Z,2.17
2019-04-21T21:37:49.243Z,3.00
2019-04-21T21:41:44.134Z,4.28
2019-04-21T21:45:50.242Z,4.08
2019-04-21T21:50:00.741Z,2.92
2019-04-21T21:53:54.663Z,3.08
2019-04-21T21:58:02.452Z,3.05
2019-04-21T22:02:05.235Z,3.67
2019-04-21T22:06:15.498Z,4.10
2019-04-21T22:10:15.947Z,3.35
2019-04-21T22:14:25.838Z,3.10
2019-04-21T22:18:45.463Z,3.42
2019-04-21T22:22:43.964Z,3.80
2019-04-21T22:26:39.050Z,3.52
2019-04-21T22:30:47.519Z,3.30
2019-04-21T22:34:54.800Z,3.10
2019-04-21T22:39:17.623Z,4.17
2019-04-21T22:43:11.957Z,8.25
2019-04-21T22:47:16.783Z,3.10
2019-04-21T22:51:20.582Z,5.00
2019-04-21T22:55:22.634Z,3.20
2019-04-21T22:59:27.835Z,3.40
2019-04-21T23:03:32.519Z,3.55
2019-04-21T23:07:44.164Z,5.30
2019-04-21T23:11:48.273Z,4.10
2019-04-21T23:15:53.895Z,3.12
2019-04-21T23:20:19.593Z,3.33
2019-04-21T23:24:26.541Z,3.47
2019-04-21T23:28:20.839Z,4.83
2019-04-21T23:32:23.856Z,4.08
2019-04-21T23:36:24.105Z,4.10
2019-04-21T23:40:27.352Z,4.20
2019-04-21T23:44:33.889Z,4.72
2019-04-21T23:48:51.892Z,5.42
2019-04-21T23:52:45.652Z,3.95
2019-04-21T23:56:51.738Z,5.12
